Time;durP1;ratioP1;P1;durP2;ratioP2;P2;SDS_P1;SDS_P2;PMS_P1;PMS_P2;Temp;Humidity;BMP_temperature;BMP_pressure;BME280_temperature;BME280_humidity;BME280_pressure;Samples;Min_cycle;Max_cycle;Signal;HPM_P1;HPM_P2
2023/06/21 00:01:28;;;;;;;14.23;11.52;;;24.70;95.40;;;;;;5134489;27;20031;-73
2023/06/21 00:03:54;;;;;;;17.40;11.18;;;24.70;95.70;;;;;;5134109;27;20027;-72
2023/06/21 00:06:20;;;;;;;12.77;11.48;;;24.70;95.80;;;;;;5098269;27;20076;-72
2023/06/21 00:08:46;;;;;;;13.30;11.35;;;24.70;95.80;;;;;;5133873;27;20468;-72
2023/06/21 00:11:12;;;;;;;12.15;10.93;;;24.60;96.20;;;;;;5134709;27;20026;-71
2023/06/21 00:13:37;;;;;;;13.25;11.95;;;24.60;96.30;;;;;;5134074;27;20083;-71
2023/06/21 00:16:03;;;;;;;13.40;12.10;;;24.60;96.40;;;;;;5134303;27;20062;-71
2023/06/21 00:18:28;;;;;;;14.55;11.63;;;24.60;96.70;;;;;;5136448;27;20475;-72
2023/06/21 00:20:59;;;;;;;13.68;12.15;;;24.60;96.70;;;;;;5133796;27;20022;-72
2023/06/21 00:23:25;;;;;;;13.15;11.63;;;24.50;96.80;;;;;;5133922;27;20456;-72
2023/06/21 00:25:50;;;;;;;12.98;11.63;;;24.50;97.20;;;;;;5133315;27;20067;-72
2023/06/21 00:28:16;;;;;;;14.23;12.23;;;24.50;97.20;;;;;;5134065;27;20034;-71
2023/06/21 00:30:42;;;;;;;17.13;11.77;;;24.50;97.40;;;;;;5133544;27;20447;-72
2023/06/21 00:33:07;;;;;;;13.88;12.55;;;24.50;97.60;;;;;;5133887;27;20120;-72
2023/06/21 00:35:33;;;;;;;13.35;11.98;;;24.40;97.70;;;;;;5115574;27;20019;-71
2023/06/21 00:37:59;;;;;;;13.77;12.40;;;24.40;97.70;;;;;;5114858;27;20521;-72
2023/06/21 00:40:25;;;;;;;13.02;11.63;;;24.40;97.80;;;;;;5133946;27;20406;-71
2023/06/21 00:42:54;;;;;;;14.23;11.82;;;24.40;97.90;;;;;;5133446;27;20026;-71
2023/06/21 00:45:21;;;;;;;15.15;11.85;;;24.40;98.00;;;;;;5133459;27;20460;-72
2023/06/21 00:47:46;;;;;;;13.95;11.85;;;24.40;98.10;;;;;;5133349;27;20023;-72
2023/06/21 00:50:13;;;;;;;14.40;12.93;;;24.40;98.20;;;;;;5133791;27;20360;-71
2023/06/21 00:52:45;;;;;;;13.05;11.73;;;24.40;98.40;;;;;;5133620;27;20024;-72
2023/06/21 00:55:12;;;;;;;13.38;11.95;;;24.30;98.30;;;;;;5133810;27;20034;-72
2023/06/21 00:57:39;;;;;;;14.38;11.88;;;24.30;98.40;;;;;;5133587;28;20031;-73
2023/06/21 01:00:05;;;;;;;12.75;11.45;;;24.30;98.40;;;;;;5133332;28;20023;-73
2023/06/21 01:02:32;;;;;;;15.82;12.55;;;24.30;98.50;;;;;;5120752;27;20042;-73
2023/06/21 01:04:59;;;;;;;13.60;12.20;;;24.30;98.80;;;;;;5126086;27;20024;-72
2023/06/21 01:08:06;;;;;;;13.95;12.45;;;24.30;99.10;;;;;;5119972;28;20031;-73
2023/06/21 01:10:58;;;;;;;15.18;13.07;;;24.30;99.30;;;;;;5036724;28;20091;-73
2023/06/21 01:13:48;;;;;;;13.93;12.57;;;24.20;99.30;;;;;;5020177;28;20036;-72
2023/06/21 01:16:15;;;;;;;13.95;12.55;;;24.20;99.50;;;;;;5103672;28;20050;-72
2023/06/21 01:18:46;;;;;;;14.98;13.38;;;24.20;99.80;;;;;;5119700;28;20084;-72
2023/06/21 01:21:22;;;;;;;18.40;12.60;;;24.20;99.80;;;;;;5121448;27;20019;-73
2023/06/21 01:24:13;;;;;;;14.45;12.82;;;24.20;99.90;;;;;;5101037;28;20353;-71
2023/06/21 01:26:58;;;;;;;14.48;13.05;;;24.20;99.90;;;;;;5119864;28;20028;-73
2023/06/21 01:29:31;;;;;;;13.95;12.52;;;24.20;99.90;;;;;;5119806;28;20059;-73
2023/06/21 01:31:59;;;;;;;15.27;13.15;;;24.20;99.90;;;;;;5119339;28;20031;-73
2023/06/21 01:34:25;;;;;;;16.30;14.40;;;24.10;99.90;;;;;;5119575;28;20031;-73
2023/06/21 01:36:51;;;;;;;14.32;13.02;;;24.10;99.90;;;;;;5119106;28;20036;-73
2023/06/21 01:39:17;;;;;;;15.55;13.95;;;24.10;99.90;;;;;;5119664;28;20019;-73
2023/06/21 01:41:43;;;;;;;15.48;13.52;;;24.00;99.90;;;;;;5119669;28;20076;-73
2023/06/21 01:44:09;;;;;;;22.45;13.70;;;24.00;99.90;;;;;;5119143;28;20023;-73
2023/06/21 01:46:35;;;;;;;23.45;14.65;;;24.10;99.90;;;;;;5119133;28;20039;-74
2023/06/21 01:49:06;;;;;;;20.98;15.50;;;24.10;99.90;;;;;;5118698;28;20372;-73
2023/06/21 01:51:35;;;;;;;18.33;14.20;;;24.10;99.90;;;;;;5119647;28;20020;-73
2023/06/21 01:54:01;;;;;;;17.02;15.23;;;24.20;99.90;;;;;;5100760;28;20038;-73
2023/06/21 01:56:28;;;;;;;16.38;14.48;;;24.20;99.90;;;;;;5119330;28;20021;-73
2023/06/21 01:58:53;;;;;;;20.25;14.55;;;24.20;99.90;;;;;;5118700;28;20023;-73
2023/06/21 02:01:20;;;;;;;19.85;15.95;;;24.20;99.90;;;;;;5119125;28;20073;-73
2023/06/21 02:03:53;;;;;;;16.40;14.70;;;24.20;99.90;;;;;;5119369;28;20050;-72
2023/06/21 02:06:26;;;;;;;17.20;15.48;;;24.10;99.90;;;;;;5119274;28;20023;-73
2023/06/21 02:08:52;;;;;;;17.38;15.07;;;24.10;99.90;;;;;;5119023;28;20024;-72
2023/06/21 02:11:19;;;;;;;17.05;14.90;;;24.00;99.90;;;;;;5119378;28;20055;-72
2023/06/21 02:13:48;;;;;;;17.23;14.68;;;24.00;99.90;;;;;;5116081;27;20073;-73
2023/06/21 02:16:15;;;;;;;16.63;15.05;;;24.00;99.90;;;;;;5134527;27;20102;-73
2023/06/21 02:18:41;;;;;;;20.80;15.82;;;24.00;99.90;;;;;;5118203;27;20035;-72
2023/06/21 02:21:06;;;;;;;16.05;14.35;;;24.00;99.90;;;;;;5117786;27;20023;-71
2023/06/21 02:23:32;;;;;;;15.85;14.35;;;23.90;99.90;;;;;;5136449;27;20034;-71
2023/06/21 02:25:58;;;;;;;17.75;15.73;;;23.90;99.90;;;;;;5117546;27;20024;-71
2023/06/21 02:28:23;;;;;;;15.15;13.55;;;23.90;99.90;;;;;;5136359;27;20076;-72
2023/06/21 02:30:49;;;;;;;16.60;14.95;;;23.90;99.90;;;;;;5135529;27;20030;-71
2023/06/21 02:33:15;;;;;;;18.77;14.70;;;23.90;99.90;;;;;;5135992;27;20023;-71
2023/06/21 02:35:40;;;;;;;20.55;14.77;;;23.80;99.90;;;;;;5136269;27;20030;-71
2023/06/21 02:38:06;;;;;;;15.68;14.07;;;23.70;99.90;;;;;;5135678;27;20031;-71
2023/06/21 02:40:32;;;;;;;16.75;13.68;;;23.70;99.90;;;;;;5117642;27;20026;-73
2023/06/21 02:42:57;;;;;;;16.38;14.88;;;23.60;99.90;;;;;;5135358;27;20020;-72
2023/06/21 02:45:23;;;;;;;15.35;13.70;;;23.60;99.90;;;;;;5135662;27;20051;-71
2023/06/21 02:47:48;;;;;;;16.58;14.73;;;23.60;99.90;;;;;;5136051;27;20470;-73
2023/06/21 02:50:18;;;;;;;16.27;14.57;;;23.60;99.90;;;;;;5117061;27;20076;-73
2023/06/21 02:52:44;;;;;;;16.50;14.75;;;23.60;99.90;;;;;;5135788;27;20028;-72
2023/06/21 02:55:10;;;;;;;18.50;16.65;;;23.70;99.90;;;;;;5135412;27;20197;-72
2023/06/21 02:57:36;;;;;;;18.40;16.63;;;23.70;99.90;;;;;;5117452;27;20031;-72
2023/06/21 03:00:17;;;;;;;68.95;54.60;;;23.70;99.90;;;;;;5135437;27;20460;-72
2023/06/21 03:02:44;;;;;;;72.38;54.72;;;23.60;99.90;;;;;;5135750;27;20034;-73
2023/06/21 03:05:11;;;;;;;34.15;24.02;;;23.60;99.90;;;;;;5134974;27;20031;-73
2023/06/21 03:07:38;;;;;;;33.88;25.90;;;23.60;99.90;;;;;;5126083;27;20038;-73
2023/06/21 03:10:04;;;;;;;47.92;29.17;;;23.60;99.90;;;;;;5114598;28;20114;-73
2023/06/21 03:12:30;;;;;;;58.03;30.95;;;23.60;99.90;;;;;;5114724;28;20028;-72
2023/06/21 03:14:56;;;;;;;20.52;15.65;;;23.60;99.90;;;;;;5114260;28;20031;-73
2023/06/21 03:17:22;;;;;;;16.55;14.57;;;23.60;99.90;;;;;;5114666;28;20051;-73
2023/06/21 03:19:47;;;;;;;17.90;15.07;;;23.60;99.90;;;;;;5114577;28;20106;-72
2023/06/21 03:22:13;;;;;;;17.33;14.77;;;23.60;99.90;;;;;;5114361;28;20024;-73
2023/06/21 03:24:38;;;;;;;34.15;20.88;;;23.60;99.90;;;;;;5114807;28;20020;-73
2023/06/21 03:27:05;;;;;;;53.35;26.38;;;23.70;99.90;;;;;;5130689;27;20084;-73
2023/06/21 03:29:33;;;;;;;29.88;19.52;;;23.70;99.90;;;;;;5116729;27;20027;-73
2023/06/21 03:31:58;;;;;;;18.17;15.57;;;23.80;99.90;;;;;;5116783;27;20023;-74
2023/06/21 03:34:24;;;;;;;19.63;15.57;;;23.80;99.90;;;;;;5134814;27;20034;-72
2023/06/21 03:36:53;;;;;;;17.13;14.93;;;23.80;99.90;;;;;;5135006;27;20379;-72
2023/06/21 03:39:19;;;;;;;16.85;15.05;;;23.90;99.90;;;;;;5117012;27;20031;-73
2023/06/21 03:41:44;;;;;;;16.25;14.55;;;23.90;99.90;;;;;;5116698;27;20020;-72
2023/06/21 03:44:10;;;;;;;18.10;15.63;;;24.00;99.90;;;;;;5134536;27;20030;-73
2023/06/21 03:46:35;;;;;;;18.20;15.55;;;24.00;99.90;;;;;;5116084;27;20043;-73
2023/06/21 03:49:01;;;;;;;16.73;14.70;;;24.00;99.90;;;;;;5134700;27;20083;-73
2023/06/21 03:51:27;;;;;;;17.15;15.45;;;24.00;99.90;;;;;;5134650;27;20379;-73
2023/06/21 03:53:52;;;;;;;18.23;15.68;;;24.00;99.90;;;;;;5134487;27;20463;-72
2023/06/21 03:56:18;;;;;;;16.70;14.98;;;24.10;99.90;;;;;;5134019;27;20029;-73
2023/06/21 03:58:43;;;;;;;16.50;14.77;;;24.00;99.90;;;;;;5134283;27;20027;-72
2023/06/21 04:01:09;;;;;;;19.73;16.50;;;24.00;99.90;;;;;;5134266;27;20055;-73
2023/06/21 04:03:35;;;;;;;16.58;14.90;;;24.00;99.90;;;;;;5135053;27;20458;-72
2023/06/21 04:06:00;;;;;;;19.30;16.13;;;24.00;99.90;;;;;;5134107;27;20050;-72
2023/06/21 04:08:26;;;;;;;19.13;17.15;;;24.00;99.90;;;;;;5134612;27;20478;-73
2023/06/21 04:10:52;;;;;;;16.48;14.85;;;24.00;99.90;;;;;;5134089;27;20019;-73
2023/06/21 04:13:17;;;;;;;19.88;16.27;;;24.00;99.90;;;;;;5133970;27;20031;-72
2023/06/21 04:15:43;;;;;;;20.02;16.33;;;24.00;99.90;;;;;;5129563;27;20409;-73
2023/06/21 04:18:09;;;;;;;19.00;16.92;;;24.00;99.90;;;;;;5113236;28;20042;-73
2023/06/21 04:20:34;;;;;;;18.75;16.83;;;24.00;99.90;;;;;;5113627;28;20448;-72
2023/06/21 04:23:00;;;;;;;19.42;15.95;;;24.00;99.90;;;;;;5113342;28;20025;-73
2023/06/21 04:25:25;;;;;;;19.80;15.88;;;24.00;99.90;;;;;;5113703;28;20102;-73
2023/06/21 04:27:54;;;;;;;17.98;16.02;;;24.00;99.90;;;;;;5113634;28;20031;-73
2023/06/21 04:30:19;;;;;;;17.38;15.63;;;24.10;99.90;;;;;;5113091;28;20035;-73
2023/06/21 04:32:45;;;;;;;16.98;15.38;;;24.20;99.90;;;;;;5113923;28;20026;-73
2023/06/21 04:35:17;;;;;;;18.83;16.83;;;24.20;99.90;;;;;;5112929;28;20106;-73
2023/06/21 04:37:45;;;;;;;18.75;16.67;;;24.30;99.90;;;;;;5113313;28;20039;-72
2023/06/21 04:40:18;;;;;;;17.55;15.70;;;24.30;99.90;;;;;;5112747;28;20107;-71
2023/06/21 04:42:54;;;;;;;17.20;15.43;;;24.40;99.90;;;;;;5113003;28;20502;-71
2023/06/21 04:45:20;;;;;;;16.23;14.55;;;24.50;99.90;;;;;;5094286;28;20147;-72
2023/06/21 04:47:48;;;;;;;19.45;15.57;;;24.60;99.90;;;;;;5113342;28;20027;-72
2023/06/21 04:50:15;;;;;;;17.75;15.15;;;24.70;99.90;;;;;;5112985;28;20062;-73
2023/06/21 04:52:41;;;;;;;17.13;14.57;;;24.80;99.90;;;;;;5095164;28;20023;-72
2023/06/21 04:55:07;;;;;;;16.05;14.43;;;24.90;99.90;;;;;;5094659;28;20384;-72
2023/06/21 04:57:34;;;;;;;17.13;15.23;;;25.00;99.90;;;;;;5113042;28;20083;-72
2023/06/21 05:00:06;;;;;;;16.60;14.90;;;25.20;99.90;;;;;;5112802;28;20027;-73
2023/06/21 05:02:31;;;;;;;16.05;14.27;;;25.60;99.90;;;;;;5113313;28;20110;-72
2023/06/21 05:04:57;;;;;;;17.48;14.40;;;25.90;99.90;;;;;;5095098;28;20544;-72
2023/06/21 05:07:23;;;;;;;16.90;15.10;;;26.20;99.90;;;;;;5112926;28;20062;-72
2023/06/21 05:09:48;;;;;;;15.93;14.35;;;26.40;98.20;;;;;;5094804;28;20026;-72
2023/06/21 05:12:14;;;;;;;15.75;13.52;;;26.80;98.20;;;;;;5094335;28;20111;-73
2023/06/21 05:14:39;;;;;;;15.07;13.50;;;27.10;96.90;;;;;;5113180;28;20036;-72
2023/06/21 05:17:05;;;;;;;16.55;13.02;;;27.10;95.60;;;;;;5126017;28;20495;-72
2023/06/21 05:19:31;;;;;;;16.05;13.98;;;27.00;95.20;;;;;;5133733;28;20094;-72
2023/06/21 05:21:56;;;;;;;18.58;15.00;;;27.10;96.30;;;;;;5130169;28;20119;-72
2023/06/21 05:24:22;;;;;;;17.98;14.07;;;27.20;94.50;;;;;;5132845;28;20058;-72
2023/06/21 05:26:48;;;;;;;17.08;15.13;;;27.10;94.60;;;;;;5115121;28;20255;-72
2023/06/21 05:29:13;;;;;;;18.35;14.88;;;27.10;94.70;;;;;;5132683;28;20446;-72
2023/06/21 05:31:43;;;;;;;16.35;14.65;;;27.00;94.70;;;;;;5133372;28;20028;-72
2023/06/21 05:34:09;;;;;;;15.82;13.80;;;27.00;94.60;;;;;;5114697;28;20023;-73
2023/06/21 05:36:35;;;;;;;17.65;13.90;;;26.90;94.40;;;;;;5133342;28;20417;-72
2023/06/21 05:39:00;;;;;;;16.15;14.32;;;26.90;94.80;;;;;;5133238;28;20023;-72
2023/06/21 05:41:26;;;;;;;19.10;13.70;;;26.80;94.50;;;;;;5132688;28;20099;-72
2023/06/21 05:43:52;;;;;;;16.88;15.18;;;26.80;94.60;;;;;;5132867;28;20027;-72
2023/06/21 05:46:18;;;;;;;21.48;15.05;;;26.80;94.50;;;;;;5132762;28;20054;-72
2023/06/21 05:48:44;;;;;;;23.77;14.68;;;26.80;95.50;;;;;;5135240;27;20035;-71
2023/06/21 05:51:10;;;;;;;15.73;14.07;;;26.90;95.20;;;;;;5101108;27;20027;-72
2023/06/21 05:53:35;;;;;;;18.23;15.27;;;27.00;94.90;;;;;;5118464;27;20027;-71
2023/06/21 05:56:01;;;;;;;17.35;15.60;;;27.00;94.30;;;;;;5136810;27;20028;-72
2023/06/21 05:58:27;;;;;;;22.00;15.35;;;27.00;94.00;;;;;;5136305;27;20027;-72
2023/06/21 06:00:52;;;;;;;16.17;14.32;;;27.00;94.60;;;;;;5136531;27;20030;-72
2023/06/21 06:03:18;;;;;;;16.00;14.30;;;27.10;94.30;;;;;;5135842;27;20027;-72
2023/06/21 06:05:47;;;;;;;15.50;13.93;;;27.10;93.60;;;;;;5136720;27;20448;-73
2023/06/21 06:08:13;;;;;;;16.40;13.25;;;27.20;93.00;;;;;;5136211;27;20034;-72
2023/06/21 06:10:38;;;;;;;15.18;13.10;;;27.20;92.80;;;;;;5134550;27;20383;-72
2023/06/21 06:13:04;;;;;;;19.73;13.75;;;27.20;92.30;;;;;;5117174;27;20027;-72
2023/06/21 06:15:30;;;;;;;16.92;13.73;;;27.20;91.60;;;;;;5116095;28;20031;-72
2023/06/21 06:17:55;;;;;;;15.02;13.45;;;27.30;91.80;;;;;;5115784;28;20096;-72
2023/06/21 06:20:21;;;;;;;15.50;12.98;;;27.20;91.50;;;;;;5115243;28;20066;-73
2023/06/21 06:22:47;;;;;;;17.73;13.68;;;27.20;91.80;;;;;;5116072;28;20034;-72
2023/06/21 06:25:13;;;;;;;14.70;12.93;;;27.20;91.60;;;;;;5115351;28;20489;-72
2023/06/21 06:27:38;;;;;;;16.75;13.30;;;27.20;91.50;;;;;;5115729;28;20051;-72
2023/06/21 06:30:05;;;;;;;24.52;13.13;;;27.30;91.20;;;;;;5116102;28;20074;-74
2023/06/21 06:32:31;;;;;;;16.63;13.05;;;27.30;90.50;;;;;;5097076;28;20114;-71
2023/06/21 06:34:56;;;;;;;16.38;12.63;;;27.30;91.00;;;;;;5115363;28;20156;-72
2023/06/21 06:37:24;;;;;;;15.60;13.18;;;27.30;90.60;;;;;;5115162;28;20468;-72
2023/06/21 06:39:51;;;;;;;14.07;12.10;;;27.40;90.40;;;;;;5115492;28;20020;-72
2023/06/21 06:42:17;;;;;;;14.75;11.95;;;27.40;90.80;;;;;;5096841;28;20357;-72
2023/06/21 06:44:43;;;;;;;18.02;12.93;;;27.50;90.50;;;;;;5115163;28;20035;-72
2023/06/21 06:47:09;;;;;;;14.05;12.65;;;27.50;90.20;;;;;;5114945;28;20480;-72
2023/06/21 06:49:36;;;;;;;16.20;13.10;;;27.60;89.50;;;;;;5114794;28;20044;-72
2023/06/21 06:52:01;;;;;;;14.32;12.30;;;27.60;88.10;;;;;;5115640;28;20072;-73
2023/06/21 06:54:27;;;;;;;14.27;12.40;;;27.60;87.90;;;;;;5114830;28;20318;-73
2023/06/21 06:56:52;;;;;;;14.95;12.15;;;27.70;87.20;;;;;;5115017;28;20139;-72
2023/06/21 06:59:18;;;;;;;14.45;12.10;;;27.60;86.80;;;;;;5114190;28;20425;-71
2023/06/21 07:01:44;;;;;;;14.75;12.23;;;27.60;87.10;;;;;;5096763;28;20054;-71
2023/06/21 07:04:09;;;;;;;15.55;13.60;;;27.60;88.40;;;;;;5096245;28;20019;-71
2023/06/21 07:06:35;;;;;;;14.75;12.90;;;27.60;89.40;;;;;;5114894;28;20031;-72
2023/06/21 07:09:02;;;;;;;18.60;12.55;;;27.60;90.20;;;;;;5114896;28;20020;-71
2023/06/21 07:11:28;;;;;;;13.57;12.27;;;27.60;89.40;;;;;;5115494;27;20027;-71
2023/06/21 07:13:54;;;;;;;14.80;12.88;;;27.60;89.80;;;;;;5131545;27;20032;-73
2023/06/21 07:16:20;;;;;;;15.68;13.45;;;27.80;89.90;;;;;;5134699;27;20050;-73
2023/06/21 07:18:46;;;;;;;17.45;15.10;;;27.90;89.30;;;;;;5135089;27;20027;-73
2023/06/21 07:21:12;;;;;;;15.40;13.75;;;27.90;88.90;;;;;;5134764;27;20463;-72
2023/06/21 07:23:37;;;;;;;20.80;13.48;;;28.10;89.80;;;;;;5135019;27;20030;-72
2023/06/21 07:26:03;;;;;;;16.70;13.20;;;28.50;88.70;;;;;;5135236;27;20094;-72
2023/06/21 07:28:29;;;;;;;19.67;13.20;;;29.10;89.70;;;;;;5116063;27;20091;-72
2023/06/21 07:30:55;;;;;;;15.68;12.27;;;29.60;84.90;;;;;;5135068;27;20023;-72
2023/06/21 07:33:21;;;;;;;16.15;12.70;;;30.20;82.00;;;;;;5134615;27;20019;-72
2023/06/21 07:35:47;;;;;;;16.25;12.75;;;30.80;79.80;;;;;;5134868;27;20034;-72
2023/06/21 07:38:13;;;;;;;21.60;13.00;;;31.40;78.20;;;;;;5134353;27;20035;-73
2023/06/21 07:40:39;;;;;;;16.60;12.27;;;32.10;78.00;;;;;;5134595;27;20313;-72
2023/06/21 07:43:05;;;;;;;20.00;13.57;;;32.70;73.40;;;;;;5134799;27;20027;-72
2023/06/21 07:45:31;;;;;;;19.85;14.10;;;33.10;72.40;;;;;;5134133;27;20055;-72
2023/06/21 07:47:56;;;;;;;17.05;13.05;;;33.50;71.80;;;;;;5116346;27;20031;-72
2023/06/21 07:50:25;;;;;;;15.85;12.05;;;33.90;68.30;;;;;;5134213;27;20076;-72
2023/06/21 07:52:50;;;;;;;18.73;13.50;;;34.00;68.10;;;;;;5134610;27;20019;-72
2023/06/21 07:55:16;;;;;;;16.77;13.88;;;33.90;66.40;;;;;;5133912;27;20026;-73
2023/06/21 07:57:43;;;;;;;22.55;14.02;;;33.80;65.50;;;;;;5134702;27;20031;-72
2023/06/21 08:00:11;;;;;;;15.98;13.23;;;33.50;66.70;;;;;;5134367;27;20028;-72
2023/06/21 08:02:38;;;;;;;16.55;13.57;;;33.40;66.70;;;;;;5133929;27;20118;-72
2023/06/21 08:05:06;;;;;;;16.55;13.90;;;33.00;67.10;;;;;;5115915;27;20436;-73
2023/06/21 08:07:32;;;;;;;18.08;14.32;;;32.90;67.10;;;;;;5130925;27;20047;-72
2023/06/21 08:09:58;;;;;;;22.13;13.20;;;32.80;66.90;;;;;;5113452;28;20119;-73
2023/06/21 08:12:23;;;;;;;16.95;12.93;;;32.70;67.70;;;;;;5112663;28;20474;-73
2023/06/21 08:14:49;;;;;;;18.90;12.75;;;32.50;67.30;;;;;;5095413;28;20053;-73
2023/06/21 08:17:15;;;;;;;14.68;13.10;;;32.30;68.10;;;;;;5113035;28;20039;-74
2023/06/21 08:19:40;;;;;;;19.10;13.95;;;32.20;68.90;;;;;;5113874;28;20110;-73
2023/06/21 08:22:06;;;;;;;15.90;12.00;;;32.10;70.20;;;;;;5113102;28;20032;-73
2023/06/21 08:24:34;;;;;;;15.00;12.57;;;31.90;69.80;;;;;;5112971;28;20030;-73
2023/06/21 08:27:00;;;;;;;17.92;13.23;;;31.90;70.30;;;;;;5113446;28;20035;-73
2023/06/21 08:29:26;;;;;;;17.45;12.65;;;31.90;69.80;;;;;;5094620;28;20034;-73
2023/06/21 08:31:52;;;;;;;14.57;12.45;;;31.80;70.60;;;;;;5113212;28;20031;-73
2023/06/21 08:34:17;;;;;;;18.58;12.48;;;31.80;70.80;;;;;;5112993;28;20098;-73
2023/06/21 08:36:43;;;;;;;16.08;12.40;;;31.80;69.20;;;;;;5113223;28;20066;-73
2023/06/21 08:39:14;;;;;;;14.73;12.00;;;31.80;69.10;;;;;;5113856;28;20081;-74
2023/06/21 08:41:41;;;;;;;14.13;11.52;;;31.70;70.00;;;;;;5113081;28;20027;-74
2023/06/21 08:44:06;;;;;;;19.83;11.55;;;31.70;67.70;;;;;;5113080;28;20024;-73
2023/06/21 08:46:35;;;;;;;12.80;10.60;;;31.50;66.50;;;;;;5112865;28;20220;-72
2023/06/21 08:49:04;;;;;;;12.18;9.23;;;31.30;65.00;;;;;;5095162;28;20047;-73
2023/06/21 08:51:34;;;;;;;12.38;10.00;;;31.30;64.90;;;;;;5112836;28;20020;-72
2023/06/21 08:54:03;;;;;;;11.10;8.48;;;31.20;64.30;;;;;;5113319;28;20023;-72
2023/06/21 08:56:34;;;;;;;15.32;8.75;;;31.30;63.20;;;;;;5112727;28;20023;-72
2023/06/21 08:59:05;;;;;;;13.20;8.40;;;31.20;62.20;;;;;;5113199;28;20056;-72
2023/06/21 09:01:49;;;;;;;16.25;8.88;;;31.30;62.30;;;;;;5112611;28;20032;-72
2023/06/21 09:04:17;;;;;;;12.43;8.57;;;31.40;63.60;;;;;;5115691;28;20569;-72
2023/06/21 09:06:44;;;;;;;11.50;8.43;;;31.60;63.00;;;;;;5112992;28;20475;-72
2023/06/21 09:09:13;;;;;;;14.35;8.23;;;31.60;59.50;;;;;;5112905;28;20028;-72
2023/06/21 09:11:41;;;;;;;17.40;8.27;;;31.70;62.30;;;;;;5112429;28;20030;-72
2023/06/21 09:14:07;;;;;;;12.40;7.72;;;31.80;61.40;;;;;;5112991;28;20015;-72
2023/06/21 09:16:34;;;;;;;15.70;8.38;;;31.90;59.20;;;;;;5112590;28;20535;-73
2023/06/21 09:19:00;;;;;;;16.38;7.47;;;32.00;59.10;;;;;;5113786;28;20437;-71
2023/06/21 09:21:26;;;;;;;13.82;6.72;;;32.00;58.20;;;;;;5133133;27;20027;-74
2023/06/21 09:23:52;;;;;;;11.45;7.50;;;31.90;55.40;;;;;;5137452;27;20082;-73
2023/06/21 09:26:17;;;;;;;9.35;6.45;;;31.90;56.00;;;;;;5137608;27;20122;-73
2023/06/21 09:28:44;;;;;;;12.80;6.85;;;31.90;56.30;;;;;;5137059;27;20035;-73
2023/06/21 09:31:10;;;;;;;12.98;7.03;;;32.00;57.20;;;;;;5137522;27;20026;-72
2023/06/21 09:33:38;;;;;;;11.68;7.03;;;32.00;56.60;;;;;;5136916;27;20035;-73
2023/06/21 09:36:05;;;;;;;13.98;7.30;;;32.10;57.20;;;;;;5137301;27;20026;-73
2023/06/21 09:38:32;;;;;;;13.35;7.93;;;32.00;57.20;;;;;;5118346;27;20063;-73
2023/06/21 09:41:00;;;;;;;13.18;6.78;;;32.10;56.00;;;;;;5137242;27;20087;-73
2023/06/21 09:43:25;;;;;;;10.82;6.88;;;32.10;57.30;;;;;;5136756;27;20023;-73
2023/06/21 09:46:05;;;;;;;10.18;5.70;;;32.10;55.50;;;;;;5136821;27;20054;-73
2023/06/21 09:48:39;;;;;;;12.57;6.25;;;32.10;54.50;;;;;;5136200;27;20038;-73
2023/06/21 09:51:23;;;;;;;9.27;5.75;;;32.10;54.20;;;;;;5136606;27;20019;-73
2023/06/21 09:53:52;;;;;;;8.05;5.65;;;32.10;54.60;;;;;;5136967;27;20023;-73
2023/06/21 09:56:19;;;;;;;17.50;6.05;;;32.20;54.30;;;;;;5136409;27;20031;-72
2023/06/21 09:58:48;;;;;;;12.13;5.68;;;32.20;53.40;;;;;;5136131;27;20035;-73
2023/06/21 10:01:15;;;;;;;16.00;6.03;;;32.30;54.20;;;;;;5134166;27;20434;-73
2023/06/21 10:03:46;;;;;;;13.63;5.72;;;32.40;53.10;;;;;;5136260;27;20031;-73
2023/06/21 10:06:18;;;;;;;13.27;5.35;;;32.40;51.70;;;;;;5136385;27;20506;-73
2023/06/21 10:08:46;;;;;;;12.90;5.60;;;32.50;51.80;;;;;;5135916;27;20464;-73
2023/06/21 10:11:16;;;;;;;11.25;5.47;;;32.50;51.50;;;;;;5136601;27;20471;-73
2023/06/21 10:13:42;;;;;;;14.68;6.20;;;32.60;52.30;;;;;;5136402;27;20468;-72
2023/06/21 10:16:07;;;;;;;13.35;5.68;;;32.50;50.90;;;;;;5136272;27;20062;-71
2023/06/21 10:18:34;;;;;;;18.02;6.75;;;32.50;52.90;;;;;;5135910;27;20034;-73
2023/06/21 10:21:04;;;;;;;17.15;6.18;;;32.60;54.40;;;;;;5136500;27;20034;-73
2023/06/21 10:23:34;;;;;;;12.75;5.53;;;32.70;51.90;;;;;;5135576;27;20471;-73
2023/06/21 10:26:12;;;;;;;13.55;5.40;;;32.70;51.30;;;;;;5136356;27;20023;-72
2023/06/21 10:28:39;;;;;;;13.52;5.25;;;32.80;49.00;;;;;;5135903;27;20092;-73
2023/06/21 10:31:11;;;;;;;11.55;4.95;;;32.80;48.50;;;;;;5136074;27;20075;-72
2023/06/21 10:33:37;;;;;;;10.98;5.65;;;32.80;49.70;;;;;;5135047;27;20363;-73
2023/06/21 10:36:06;;;;;;;13.10;5.60;;;33.00;50.80;;;;;;5136138;27;20031;-72
2023/06/21 10:38:48;;;;;;;10.82;5.15;;;33.00;48.80;;;;;;5116991;27;20030;-73
2023/06/21 10:41:14;;;;;;;12.65;5.38;;;33.00;48.60;;;;;;5135935;27;20413;-73
2023/06/21 10:43:41;;;;;;;13.00;4.45;;;33.10;49.10;;;;;;5117083;27;20035;-73
2023/06/21 10:46:09;;;;;;;11.38;5.70;;;33.10;47.70;;;;;;5135445;27;20046;-72
2023/06/21 10:48:35;;;;;;;14.63;5.40;;;33.10;47.30;;;;;;5135420;27;20103;-73
2023/06/21 10:51:03;;;;;;;11.02;4.43;;;33.20;47.40;;;;;;5135309;27;20058;-72
2023/06/21 10:53:32;;;;;;;11.90;5.13;;;33.20;47.90;;;;;;5135276;27;20030;-73
2023/06/21 10:55:59;;;;;;;16.58;4.45;;;33.20;47.60;;;;;;5135685;27;20045;-73
2023/06/21 10:58:25;;;;;;;14.65;4.40;;;33.20;46.90;;;;;;5135026;27;20035;-73
2023/06/21 11:00:51;;;;;;;9.27;4.40;;;33.20;47.10;;;;;;5135502;27;20395;-73
2023/06/21 11:03:24;;;;;;;17.45;4.72;;;33.20;47.10;;;;;;5135420;27;20023;-72
2023/06/21 11:05:56;;;;;;;15.38;4.75;;;33.20;47.70;;;;;;5135176;27;20027;-74
2023/06/21 11:08:36;;;;;;;12.07;4.95;;;33.30;48.00;;;;;;5135819;27;20034;-71
2023/06/21 11:11:02;;;;;;;13.73;4.82;;;33.30;46.80;;;;;;5135149;27;20019;-72
2023/06/21 11:13:38;;;;;;;11.38;4.18;;;33.30;46.00;;;;;;5131279;27;20068;-73
2023/06/21 11:16:18;;;;;;;12.23;4.10;;;33.30;46.00;;;;;;5134782;27;20046;-72
2023/06/21 11:18:59;;;;;;;8.55;4.43;;;33.30;45.20;;;;;;5099257;27;20122;-71
2023/06/21 11:21:45;;;;;;;12.90;5.07;;;33.40;44.90;;;;;;5135257;27;20156;-71
2023/06/21 11:24:20;;;;;;;11.95;4.07;;;33.40;45.30;;;;;;5135031;27;20019;-73
2023/06/21 11:27:03;;;;;;;14.18;4.50;;;33.40;44.20;;;;;;5132851;27;20030;-73
2023/06/21 11:29:35;;;;;;;11.13;4.25;;;33.30;43.80;;;;;;5115905;27;20149;-73
2023/06/21 11:32:11;;;;;;;16.80;4.65;;;33.40;44.80;;;;;;5134974;27;20170;-73
2023/06/21 11:34:49;;;;;;;13.48;4.30;;;33.40;44.70;;;;;;5099646;27;20023;-73
2023/06/21 11:37:43;;;;;;;13.85;4.80;;;33.40;44.90;;;;;;5116529;27;20023;-72
2023/06/21 11:40:26;;;;;;;14.63;4.97;;;33.50;45.70;;;;;;5134832;27;20090;-73
2023/06/21 11:42:52;;;;;;;12.75;4.40;;;33.50;45.10;;;;;;5133895;27;20479;-72
2023/06/21 11:45:38;;;;;;;10.93;3.97;;;33.50;45.20;;;;;;5134365;27;20047;-72
2023/06/21 11:48:12;;;;;;;15.23;5.38;;;33.50;43.30;;;;;;5133905;27;20035;-74
2023/06/21 11:50:42;;;;;;;14.80;4.10;;;33.50;43.30;;;;;;5134559;27;20046;-72
2023/06/21 11:53:30;;;;;;;7.63;3.97;;;33.40;43.00;;;;;;5134304;27;20079;-73
2023/06/21 11:56:01;;;;;;;8.93;3.92;;;33.40;43.50;;;;;;5134109;27;20035;-72
2023/06/21 11:58:28;;;;;;;11.55;3.88;;;33.30;43.00;;;;;;5134190;27;20084;-72
2023/06/21 12:00:54;;;;;;;9.38;3.13;;;33.20;43.20;;;;;;5133810;27;20388;-73
2023/06/21 12:03:22;;;;;;;9.32;3.65;;;33.20;42.70;;;;;;5134141;27;20051;-72
2023/06/21 12:06:01;;;;;;;13.18;4.15;;;33.10;42.70;;;;;;5114502;27;20027;-72
2023/06/21 12:08:31;;;;;;;9.60;3.67;;;33.10;42.50;;;;;;5132718;27;20490;-72
2023/06/21 12:11:01;;;;;;;11.20;3.65;;;33.00;42.50;;;;;;5115737;27;20110;-72
2023/06/21 12:13:27;;;;;;;13.05;3.63;;;33.00;43.00;;;;;;5134174;27;20106;-73
2023/06/21 12:15:58;;;;;;;16.17;3.70;;;33.10;43.10;;;;;;5133676;27;20031;-72
2023/06/21 12:18:26;;;;;;;10.90;3.75;;;33.10;43.80;;;;;;5134035;27;20030;-72
2023/06/21 12:20:54;;;;;;;12.18;3.97;;;33.00;43.60;;;;;;5133921;27;20407;-73
2023/06/21 12:23:21;;;;;;;13.80;4.53;;;33.10;43.90;;;;;;5133660;27;20037;-73
2023/06/21 12:25:51;;;;;;;10.32;4.35;;;33.10;44.10;;;;;;5114951;27;20110;-73
2023/06/21 12:28:21;;;;;;;10.55;3.80;;;33.10;44.10;;;;;;5133820;27;20023;-71
2023/06/21 12:30:50;;;;;;;12.88;4.15;;;33.00;44.30;;;;;;5133457;27;20023;-71
2023/06/21 12:33:16;;;;;;;14.25;5.05;;;33.00;44.20;;;;;;5133756;27;20459;-72
2023/06/21 12:35:46;;;;;;;15.85;4.20;;;33.10;44.80;;;;;;5133389;27;20027;-72